Time;durP1;ratioP1;P1;durP2;ratioP2;P2;SDS_P1;SDS_P2;PMS_P1;PMS_P2;Temp;Humidity;BMP_temperature;BMP_pressure;BME280_temperature;BME280_humidity;BME280_pressure;Samples;Min_cycle;Max_cycle;Signal;HPM_P1;HPM_P2
2022/07/27 00:02:00;;;;;;;;;;;;;;;;;;5091592;28;899;-70
2022/07/27 00:04:25;;;;;;;;;;;;;;;;;;5091866;28;883;-70
2022/07/27 00:06:50;;;;;;;;;;;;;;;;;;5092932;28;983;-70
2022/07/27 00:09:18;;;;;;;;;;;;;;;;;;5091912;28;1977;-70
2022/07/27 00:11:43;;;;;;;;;;;;;;;;;;5091449;28;880;-70
2022/07/27 00:14:08;;;;;;;;;;;;;;;;;;5092414;28;943;-70
2022/07/27 00:16:34;;;;;;;;;;;;;;;;;;5091646;28;903;-69
2022/07/27 00:18:59;;;;;;;;;;;;;;;;;;5091813;28;837;-70
2022/07/27 00:21:25;;;;;;;;;;;;;;;;;;5091299;28;840;-69
2022/07/27 00:23:50;;;;;;;;;;;;;;;;;;5090806;28;1522;-69
2022/07/27 00:26:16;;;;;;;;;;;;;;;;;;5092195;28;905;-70
2022/07/27 00:28:41;;;;;;;;;;;;;;;;;;5073243;28;1918;-70
2022/07/27 00:31:06;;;;;;;;;;;;;;;;;;5074290;28;1661;-70
2022/07/27 00:33:32;;;;;;;;;;;;;;;;;;5090534;28;963;-70
2022/07/27 00:35:57;;;;;;;;;;;;;;;;;;5091709;28;934;-70
2022/07/27 00:38:23;;;;;;;;;;;;;;;;;;5091989;28;840;-70
2022/07/27 00:40:48;;;;;;;;;;;;;;;;;;5095682;28;841;-70
2022/07/27 00:43:14;;;;;;;;;;;;;;;;;;5094386;28;923;-70
2022/07/27 00:45:39;;;;;;;;;;;;;;;;;;5095242;28;871;-70
2022/07/27 00:48:05;;;;;;;;;;;;;;;;;;5077106;28;1910;-70
2022/07/27 00:50:30;;;;;;;;;;;;;;;;;;5093832;28;682;-70
2022/07/27 00:52:55;;;;;;;;;;;;;;;;;;5095311;28;789;-70
2022/07/27 00:55:21;;;;;;;;;;;;;;;;;;5080391;28;1238;-69
2022/07/27 00:57:46;;;;;;;;;;;;;;;;;;5094462;28;1216;-69
2022/07/27 01:00:12;;;;;;;;;;;;;;;;;;5107003;28;1196;-69
2022/07/27 01:02:37;;;;;;;;;;;;;;;;;;5115172;28;1187;-69
2022/07/27 01:05:02;;;;;;;;;;;;;;;;;;5115752;28;976;-69
2022/07/27 01:07:30;;;;;;;;;;;;;;;;;;5114397;28;1909;-69
2022/07/27 01:09:56;;;;;;;;;;;;;;;;;;5115332;28;872;-69
2022/07/27 01:12:23;;;;;;;;;;;;;;;;;;5113930;28;884;-69
2022/07/27 01:14:50;;;;;;;;;;;;;;;;;;5115239;28;900;-69
2022/07/27 01:17:16;;;;;;;;;;;;;;;;;;5113939;28;825;-68
2022/07/27 01:19:41;;;;;;;;;;;;;;;;;;5115090;28;1002;-69
2022/07/27 01:22:07;;;;;;;;;;;;;;;;;;5115146;28;848;-68
2022/07/27 01:24:33;;;;;;;;;;;;;;;;;;5114546;28;935;-69
2022/07/27 01:26:59;;;;;;;;;;;;;;;;;;5115644;28;842;-69
2022/07/27 01:29:24;;;;;;;;;;;;;;;;;;5115436;28;1918;-69
2022/07/27 01:31:49;;;;;;;;;;;;;;;;;;5114532;28;837;-69
2022/07/27 01:34:14;;;;;;;;;;;;;;;;;;5115707;28;916;-69
2022/07/27 01:36:40;;;;;;;;;;;;;;;;;;5115084;28;982;-69
2022/07/27 01:39:05;;;;;;;;;;;;;;;;;;5113877;28;1044;-69
2022/07/27 01:41:30;;;;;;;;;;;;;;;;;;5096426;28;1250;-69
2022/07/27 01:43:55;;;;;;;;;;;;;;;;;;5115603;28;899;-69
2022/07/27 01:46:21;;;;;;;;;;;;;;;;;;5115128;28;828;-69
2022/07/27 01:48:46;;;;;;;;;;;;;;;;;;5113327;28;1961;-69
2022/07/27 01:51:11;;;;;;;;;;;;;;;;;;5114276;28;840;-69
2022/07/27 01:53:36;;;;;;;;;;;;;;;;;;5113352;28;1134;-69
2022/07/27 01:56:02;;;;;;;;;;;;;;;;;;5115258;28;987;-69
2022/07/27 01:58:27;;;;;;;;;;;;;;;;;;5114394;28;1061;-69
2022/07/27 02:00:52;;;;;;;;;;;;;;;;;;5114859;28;978;-70
2022/07/27 02:03:17;;;;;;;;;;;;;;;;;;5114575;28;939;-69
2022/07/27 02:05:43;;;;;;;;;;;;;;;;;;5114175;28;875;-69
2022/07/27 02:08:08;;;;;;;;;;;;;;;;;;5096803;28;1963;-70
2022/07/27 02:10:34;;;;;;;;;;;;;;;;;;5114166;28;853;-70
2022/07/27 02:12:59;;;;;;;;;;;;;;;;;;5112718;28;1121;-70
2022/07/27 02:15:25;;;;;;;;;;;;;;;;;;5095926;28;1187;-70
2022/07/27 02:17:51;;;;;;;;;;;;;;;;;;5112299;28;1259;-70
2022/07/27 02:20:18;;;;;;;;;;;;;;;;;;5112650;28;852;-70
2022/07/27 02:22:43;;;;;;;;;;;;;;;;;;5112430;28;1251;-68
2022/07/27 02:25:09;;;;;;;;;;;;;;;;;;5112784;28;1264;-70
2022/07/27 02:27:34;;;;;;;;;;;;;;;;;;5113498;28;1918;-70
2022/07/27 02:30:00;;;;;;;;;;;;;;;;;;5113754;28;959;-70
2022/07/27 02:32:25;;;;;;;;;;;;;;;;;;5113703;28;872;-70
2022/07/27 02:34:51;;;;;;;;;;;;;;;;;;5112897;28;1010;-69
2022/07/27 02:37:17;;;;;;;;;;;;;;;;;;5113906;28;1085;-69
2022/07/27 02:39:42;;;;;;;;;;;;;;;;;;5112090;28;896;-69
2022/07/27 02:42:08;;;;;;;;;;;;;;;;;;5112175;28;1149;-69
2022/07/27 02:44:33;;;;;;;;;;;;;;;;;;5095084;28;1479;-69
2022/07/27 02:46:58;;;;;;;;;;;;;;;;;;5113210;28;903;-70
2022/07/27 02:49:23;;;;;;;;;;;;;;;;;;5113624;28;1914;-69
2022/07/27 02:51:50;;;;;;;;;;;;;;;;;;5112509;28;927;-69
2022/07/27 02:54:16;;;;;;;;;;;;;;;;;;5113326;28;852;-69
2022/07/27 02:56:41;;;;;;;;;;;;;;;;;;5112730;28;986;-70
2022/07/27 02:59:06;;;;;;;;;;;;;;;;;;5111884;28;1303;-69
2022/07/27 03:01:32;;;;;;;;;;;;;;;;;;5110317;28;979;-70
2022/07/27 03:03:57;;;;;;;;;;;;;;;;;;5112936;28;853;-70
2022/07/27 03:06:22;;;;;;;;;;;;;;;;;;5113000;28;935;-69
2022/07/27 03:08:47;;;;;;;;;;;;;;;;;;5094057;28;1902;-69
2022/07/27 03:11:14;;;;;;;;;;;;;;;;;;5112830;27;808;-69
2022/07/27 03:13:39;;;;;;;;;;;;;;;;;;5111475;28;809;-70
2022/07/27 03:16:05;;;;;;;;;;;;;;;;;;5094630;28;1222;-69
2022/07/27 03:18:30;;;;;;;;;;;;;;;;;;5111356;28;1015;-69
2022/07/27 03:20:55;;;;;;;;;;;;;;;;;;5111847;28;1150;-70
2022/07/27 03:23:20;;;;;;;;;;;;;;;;;;5111397;28;1249;-70
2022/07/27 03:25:46;;;;;;;;;;;;;;;;;;5111234;28;880;-69
2022/07/27 03:28:11;;;;;;;;;;;;;;;;;;5113520;28;1913;-70
2022/07/27 03:30:36;;;;;;;;;;;;;;;;;;5111643;28;943;-70
2022/07/27 03:33:02;;;;;;;;;;;;;;;;;;5112445;28;840;-69
2022/07/27 03:35:27;;;;;;;;;;;;;;;;;;5113117;28;924;-69
2022/07/27 03:37:52;;;;;;;;;;;;;;;;;;5113140;28;837;-69
2022/07/27 03:40:17;;;;;;;;;;;;;;;;;;5113449;28;876;-69
2022/07/27 03:42:43;;;;;;;;;;;;;;;;;;5113014;28;898;-69
2022/07/27 03:45:09;;;;;;;;;;;;;;;;;;5113093;28;935;-69
2022/07/27 03:47:34;;;;;;;;;;;;;;;;;;5112956;28;1910;-69
2022/07/27 03:49:59;;;;;;;;;;;;;;;;;;5112856;28;879;-69
2022/07/27 03:52:24;;;;;;;;;;;;;;;;;;5111398;28;805;-69
2022/07/27 03:54:50;;;;;;;;;;;;;;;;;;5110967;28;907;-69
2022/07/27 03:57:15;;;;;;;;;;;;;;;;;;5111443;28;832;-69
2022/07/27 03:59:40;;;;;;;;;;;;;;;;;;5111287;28;789;-69
2022/07/27 04:02:06;;;;;;;;;;;;;;;;;;5111177;28;844;-69
2022/07/27 04:04:31;;;;;;;;;;;;;;;;;;5112055;28;997;-69
2022/07/27 04:06:56;;;;;;;;;;;;;;;;;;5094619;28;1931;-69
2022/07/27 04:09:21;;;;;;;;;;;;;;;;;;5110746;28;1961;-69
2022/07/27 04:11:47;;;;;;;;;;;;;;;;;;5112159;28;832;-69
2022/07/27 04:14:12;;;;;;;;;;;;;;;;;;5114365;28;1482;-68
2022/07/27 04:16:38;;;;;;;;;;;;;;;;;;5116207;28;927;-69
2022/07/27 04:19:03;;;;;;;;;;;;;;;;;;5115132;28;1621;-69
2022/07/27 04:21:28;;;;;;;;;;;;;;;;;;5116158;28;1054;-69
2022/07/27 04:23:53;;;;;;;;;;;;;;;;;;5115657;28;983;-69
2022/07/27 04:26:19;;;;;;;;;;;;;;;;;;5116140;28;1045;-69
2022/07/27 04:28:44;;;;;;;;;;;;;;;;;;5114537;28;1965;-68
2022/07/27 04:31:09;;;;;;;;;;;;;;;;;;5116173;28;863;-69
2022/07/27 04:33:34;;;;;;;;;;;;;;;;;;5116060;28;1042;-69
2022/07/27 04:36:00;;;;;;;;;;;;;;;;;;5114758;28;956;-69
2022/07/27 04:38:25;;;;;;;;;;;;;;;;;;5114073;28;1198;-69
2022/07/27 04:40:50;;;;;;;;;;;;;;;;;;5095718;28;1214;-68
2022/07/27 04:43:16;;;;;;;;;;;;;;;;;;5095574;28;934;-69
2022/07/27 04:45:41;;;;;;;;;;;;;;;;;;5095481;28;856;-69
2022/07/27 04:48:07;;;;;;;;;;;;;;;;;;5076838;28;1970;-69
2022/07/27 04:50:37;;;;;;;;;;;;;;;;;;5094583;28;904;-69
2022/07/27 04:53:02;;;;;;;;;;;;;;;;;;5095002;28;848;-69
2022/07/27 04:55:28;;;;;;;;;;;;;;;;;;5094991;28;903;-69
2022/07/27 04:57:53;;;;;;;;;;;;;;;;;;5094865;28;692;-69
2022/07/27 05:00:18;;;;;;;;;;;;;;;;;;5094472;28;939;-69
2022/07/27 05:02:44;;;;;;;;;;;;;;;;;;5094527;28;959;-70
2022/07/27 05:05:09;;;;;;;;;;;;;;;;;;5094997;28;975;-69
2022/07/27 05:07:35;;;;;;;;;;;;;;;;;;5093366;28;1955;-69
2022/07/27 05:10:00;;;;;;;;;;;;;;;;;;5095084;28;872;-70
2022/07/27 05:12:25;;;;;;;;;;;;;;;;;;5095285;28;837;-69
2022/07/27 05:14:51;;;;;;;;;;;;;;;;;;5094157;28;892;-70
2022/07/27 05:17:16;;;;;;;;;;;;;;;;;;5095210;28;924;-69
2022/07/27 05:19:41;;;;;;;;;;;;;;;;;;5076908;28;1093;-70
2022/07/27 05:22:07;;;;;;;;;;;;;;;;;;5095522;28;922;-70
2022/07/27 05:24:32;;;;;;;;;;;;;;;;;;5094061;28;899;-70
2022/07/27 05:26:58;;;;;;;;;;;;;;;;;;5095189;28;994;-70
2022/07/27 05:29:24;;;;;;;;;;;;;;;;;;5095294;28;1972;-70
2022/07/27 05:31:49;;;;;;;;;;;;;;;;;;5095294;28;896;-70
2022/07/27 05:34:14;;;;;;;;;;;;;;;;;;5094862;28;1211;-70
2022/07/27 05:36:40;;;;;;;;;;;;;;;;;;5095054;28;845;-70
2022/07/27 05:39:05;;;;;;;;;;;;;;;;;;5094756;28;1022;-70
2022/07/27 05:41:30;;;;;;;;;;;;;;;;;;5094626;28;887;-70
2022/07/27 05:43:56;;;;;;;;;;;;;;;;;;5095058;28;761;-70
2022/07/27 05:46:22;;;;;;;;;;;;;;;;;;5095274;28;887;-70
2022/07/27 05:48:47;;;;;;;;;;;;;;;;;;5094439;28;1977;-69
2022/07/27 05:51:13;;;;;;;;;;;;;;;;;;5093075;28;1198;-68
2022/07/27 05:53:38;;;;;;;;;;;;;;;;;;5094582;28;852;-68
2022/07/27 05:56:04;;;;;;;;;;;;;;;;;;5094760;28;994;-68
2022/07/27 05:58:29;;;;;;;;;;;;;;;;;;5095001;28;833;-69
2022/07/27 06:00:55;;;;;;;;;;;;;;;;;;5094733;28;1002;-69
2022/07/27 06:03:21;;;;;;;;;;;;;;;;;;5093842;28;829;-69
2022/07/27 06:05:46;;;;;;;;;;;;;;;;;;5093447;28;879;-69
2022/07/27 06:08:11;;;;;;;;;;;;;;;;;;5092458;28;1909;-69
2022/07/27 06:10:39;;;;;;;;;;;;;;;;;;5075658;28;1480;-69
2022/07/27 06:13:05;;;;;;;;;;;;;;;;;;5092138;28;1282;-69
2022/07/27 06:15:31;;;;;;;;;;;;;;;;;;5093783;28;891;-69
2022/07/27 06:17:56;;;;;;;;;;;;;;;;;;5094069;28;840;-69
2022/07/27 06:20:22;;;;;;;;;;;;;;;;;;5093838;28;916;-69
2022/07/27 06:22:52;;;;;;;;;;;;;;;;;;5091958;28;884;-69
2022/07/27 06:25:18;;;;;;;;;;;;;;;;;;5092168;28;892;-70
2022/07/27 06:27:43;;;;;;;;;;;;;;;;;;5092743;28;1902;-70
2022/07/27 06:30:09;;;;;;;;;;;;;;;;;;5092168;28;1221;-69
2022/07/27 06:32:35;;;;;;;;;;;;;;;;;;5091700;28;1095;-69
2022/07/27 06:35:01;;;;;;;;;;;;;;;;;;5093373;28;871;-70
2022/07/27 06:37:28;;;;;;;;;;;;;;;;;;5092967;28;905;-69
2022/07/27 06:39:53;;;;;;;;;;;;;;;;;;5092823;28;857;-69
2022/07/27 06:42:18;;;;;;;;;;;;;;;;;;5093401;28;825;-70
2022/07/27 06:44:44;;;;;;;;;;;;;;;;;;5093337;28;899;-70
2022/07/27 06:47:09;;;;;;;;;;;;;;;;;;5092456;28;860;-70
2022/07/27 06:49:34;;;;;;;;;;;;;;;;;;5092077;28;1882;-70
2022/07/27 06:52:00;;;;;;;;;;;;;;;;;;5093621;28;1094;-70
2022/07/27 06:54:26;;;;;;;;;;;;;;;;;;5093235;28;919;-70
2022/07/27 06:56:51;;;;;;;;;;;;;;;;;;5093748;28;1067;-70
2022/07/27 06:59:16;;;;;;;;;;;;;;;;;;5092223;28;1340;-70
2022/07/27 07:01:42;;;;;;;;;;;;;;;;;;5093167;28;908;-70
2022/07/27 07:04:07;;;;;;;;;;;;;;;;;;5092565;28;892;-70
2022/07/27 07:06:33;;;;;;;;;;;;;;;;;;5091669;28;1113;-70
2022/07/27 07:08:59;;;;;;;;;;;;;;;;;;5091769;28;1898;-70
2022/07/27 07:11:24;;;;;;;;;;;;;;;;;;5091567;28;1322;-71
2022/07/27 07:13:49;;;;;;;;;;;;;;;;;;5092737;28;892;-70
2022/07/27 07:16:15;;;;;;;;;;;;;;;;;;5091765;28;891;-70
2022/07/27 07:18:40;;;;;;;;;;;;;;;;;;5091599;28;848;-70
2022/07/27 07:21:05;;;;;;;;;;;;;;;;;;5093290;28;962;-70
2022/07/27 07:23:30;;;;;;;;;;;;;;;;;;5092803;28;887;-70
2022/07/27 07:25:57;;;;;;;;;;;;;;;;;;5092037;28;1417;-71
2022/07/27 07:28:22;;;;;;;;;;;;;;;;;;5093098;28;1918;-71
2022/07/27 07:30:48;;;;;;;;;;;;;;;;;;5091669;28;955;-71
2022/07/27 07:33:13;;;;;;;;;;;;;;;;;;5091354;28;1242;-71
2022/07/27 07:35:38;;;;;;;;;;;;;;;;;;5092733;28;860;-70
2022/07/27 07:38:04;;;;;;;;;;;;;;;;;;5092649;28;927;-70
2022/07/27 07:40:29;;;;;;;;;;;;;;;;;;5092323;28;975;-70
2022/07/27 07:42:58;;;;;;;;;;;;;;;;;;5074645;28;1191;-70
2022/07/27 07:45:24;;;;;;;;;;;;;;;;;;5092063;28;876;-70
2022/07/27 07:47:50;;;;;;;;;;;;;;;;;;5091460;28;1909;-70
2022/07/27 07:50:16;;;;;;;;;;;;;;;;;;5096599;28;848;-70
2022/07/27 07:52:41;;;;;;;;;;;;;;;;;;5096181;28;935;-71
2022/07/27 07:55:07;;;;;;;;;;;;;;;;;;5095056;28;1391;-71
2022/07/27 07:57:33;;;;;;;;;;;;;;;;;;5095888;28;968;-71
2022/07/27 07:59:58;;;;;;;;;;;;;;;;;;5092181;28;1781;-70
2022/07/27 08:02:23;;;;;;;;;;;;;;;;;;5105551;28;1215;-71
2022/07/27 08:04:48;;;;;;;;;;;;;;;;;;5101577;28;1179;-71
2022/07/27 08:07:14;;;;;;;;;;;;;;;;;;5109664;28;1131;-71
2022/07/27 08:09:39;;;;;;;;;;;;;;;;;;5116184;28;1906;-71
2022/07/27 08:12:05;;;;;;;;;;;;;;;;;;5117229;28;828;-71
2022/07/27 08:14:31;;;;;;;;;;;;;;;;;;5115894;28;906;-71
2022/07/27 08:16:56;;;;;;;;;;;;;;;;;;5116717;28;828;-71
2022/07/27 08:19:21;;;;;;;;;;;;;;;;;;5106594;28;1337;-71
2022/07/27 08:21:48;;;;;;;;;;;;;;;;;;5095087;28;1408;-71
2022/07/27 08:24:13;;;;;;;;;;;;;;;;;;5096541;28;896;-71
2022/07/27 08:26:38;;;;;;;;;;;;;;;;;;5077955;28;1303;-72
2022/07/27 08:29:04;;;;;;;;;;;;;;;;;;5095052;28;1973;-71
2022/07/27 08:31:29;;;;;;;;;;;;;;;;;;5094493;28;1378;-71
2022/07/27 08:33:56;;;;;;;;;;;;;;;;;;5096472;28;1006;-71
2022/07/27 08:36:21;;;;;;;;;;;;;;;;;;5077586;28;853;-71
2022/07/27 08:38:47;;;;;;;;;;;;;;;;;;5095949;28;1038;-71
2022/07/27 08:41:14;;;;;;;;;;;;;;;;;;5094656;28;1449;-71
2022/07/27 08:43:41;;;;;;;;;;;;;;;;;;5094495;28;1209;-71
2022/07/27 08:46:08;;;;;;;;;;;;;;;;;;5094800;28;1530;-71
2022/07/27 08:48:34;;;;;;;;;;;;;;;;;;5095873;28;1977;-71
2022/07/27 08:50:59;;;;;;;;;;;;;;;;;;5096350;28;856;-71
2022/07/27 08:53:25;;;;;;;;;;;;;;;;;;5094408;28;1375;-70
2022/07/27 08:55:50;;;;;;;;;;;;;;;;;;5095490;28;821;-71
2022/07/27 08:58:16;;;;;;;;;;;;;;;;;;5095826;28;864;-71
2022/07/27 09:00:42;;;;;;;;;;;;;;;;;;5095714;28;884;-70
2022/07/27 09:03:12;;;;;;;;;;;;;;;;;;5095463;28;864;-71
2022/07/27 09:05:43;;;;;;;;;;;;;;;;;;5095097;28;926;-71
2022/07/27 09:08:10;;;;;;;;;;;;;;;;;;5093855;28;1914;-71
2022/07/27 09:10:37;;;;;;;;;;;;;;;;;;5092010;28;1530;-71
2022/07/27 09:13:19;;;;;;;;;;;;;;;;;;5101860;28;1537;-72
2022/07/27 09:15:47;;;;;;;;;;;;;;;;;;5090344;28;1575;-72
2022/07/27 09:18:17;;;;;;;;;;;;;;;;;;5093433;28;1664;-71
2022/07/27 09:20:42;;;;;;;;;;;;;;;;;;5110562;27;1814;-72
2022/07/27 09:23:07;;;;;;;;;;;;;;;;;;5108259;28;1207;-71
2022/07/27 09:25:35;;;;;;;;;;;;;;;;;;5113623;28;1418;-72
2022/07/27 09:28:00;;;;;;;;;;;;;;;;;;5115258;28;1914;-71
2022/07/27 09:30:26;;;;;;;;;;;;;;;;;;5115060;28;1155;-71
2022/07/27 09:32:54;;;;;;;;;;;;;;;;;;5114853;28;860;-71
2022/07/27 09:35:21;;;;;;;;;;;;;;;;;;5113982;28;1122;-71
2022/07/27 09:37:47;;;;;;;;;;;;;;;;;;5114619;28;832;-71
2022/07/27 09:40:12;;;;;;;;;;;;;;;;;;5113547;28;1335;-70
2022/07/27 09:42:37;;;;;;;;;;;;;;;;;;5112882;28;1413;-71
2022/07/27 09:45:03;;;;;;;;;;;;;;;;;;5114904;28;836;-71
2022/07/27 09:47:29;;;;;;;;;;;;;;;;;;5113669;28;904;-71
2022/07/27 09:50:16;;;;;;;;;;;;;;;;;;5114374;28;1894;-71
2022/07/27 09:52:42;;;;;;;;;;;;;;;;;;5113664;28;903;-71
2022/07/27 09:55:07;;;;;;;;;;;;;;;;;;5114437;28;916;-71
2022/07/27 09:57:52;;;;;;;;;;;;;;;;;;5113713;28;1022;-71
2022/07/27 10:00:17;;;;;;;;;;;;;;;;;;5114940;27;923;-71
2022/07/27 10:02:43;;;;;;;;;;;;;;;;;;5115044;28;1042;-70
2022/07/27 10:05:08;;;;;;;;;;;;;;;;;;5113485;28;1263;-70
2022/07/27 10:07:34;;;;;;;;;;;;;;;;;;5112623;28;1902;-70
2022/07/27 10:10:00;;;;;;;;;;;;;;;;;;5113202;28;1222;-70
2022/07/27 10:12:27;;;;;;;;;;;;;;;;;;5114355;28;864;-70
2022/07/27 10:14:53;;;;;;;;;;;;;;;;;;5115133;28;856;-71
2022/07/27 10:17:18;;;;;;;;;;;;;;;;;;5114553;28;813;-70
2022/07/27 10:19:45;;;;;;;;;;;;;;;;;;5112302;28;908;-70
2022/07/27 10:22:11;;;;;;;;;;;;;;;;;;5108993;28;1201;-70
2022/07/27 10:24:36;;;;;;;;;;;;;;;;;;5102318;28;1195;-69
2022/07/27 10:27:17;;;;;;;;;;;;;;;;;;5085876;28;1294;-70
2022/07/27 10:29:42;;;;;;;;;;;;;;;;;;5097666;28;1906;-71
2022/07/27 10:32:08;;;;;;;;;;;;;;;;;;5100967;28;1159;-71
2022/07/27 10:34:34;;;;;;;;;;;;;;;;;;5091715;28;1139;-70
2022/07/27 10:37:11;;;;;;;;;;;;;;;;;;5113948;28;1070;-71
2022/07/27 10:39:42;;;;;;;;;;;;;;;;;;5112534;28;1273;-71
2022/07/27 10:42:18;;;;;;;;;;;;;;;;;;5112674;28;1387;-71
2022/07/27 10:44:52;;;;;;;;;;;;;;;;;;5112972;28;841;-71
2022/07/27 10:47:32;;;;;;;;;;;;;;;;;;5114001;28;837;-70
2022/07/27 10:50:15;;;;;;;;;;;;;;;;;;5113475;28;1963;-71
2022/07/27 10:52:43;;;;;;;;;;;;;;;;;;5113299;28;837;-70
2022/07/27 10:55:27;;;;;;;;;;;;;;;;;;5112551;28;911;-71
2022/07/27 10:57:54;;;;;;;;;;;;;;;;;;5111840;28;1305;-71
2022/07/27 11:00:19;;;;;;;;;;;;;;;;;;5112773;28;1014;-71
2022/07/27 11:02:45;;;;;;;;;;;;;;;;;;5112170;28;998;-71
2022/07/27 11:05:10;;;;;;;;;;;;;;;;;;5113636;28;990;-71
2022/07/27 11:07:37;;;;;;;;;;;;;;;;;;5112725;28;1906;-71
2022/07/27 11:10:03;;;;;;;;;;;;;;;;;;5113222;28;836;-71
2022/07/27 11:12:28;;;;;;;;;;;;;;;;;;5113065;28;919;-71
2022/07/27 11:14:55;;;;;;;;;;;;;;;;;;5111056;28;1149;-70
2022/07/27 11:17:22;;;;;;;;;;;;;;;;;;5113051;28;924;-71
2022/07/27 11:19:54;;;;;;;;;;;;;;;;;;5112561;28;1006;-71
2022/07/27 11:22:33;;;;;;;;;;;;;;;;;;5110717;28;1197;-71
2022/07/27 11:25:00;;;;;;;;;;;;;;;;;;5112342;28;970;-71
2022/07/27 11:27:26;;;;;;;;;;;;;;;;;;5112643;28;912;-71
2022/07/27 11:29:51;;;;;;;;;;;;;;;;;;5110760;28;1897;-71
2022/07/27 11:32:17;;;;;;;;;;;;;;;;;;5111544;28;1145;-71
2022/07/27 11:34:42;;;;;;;;;;;;;;;;;;5112543;28;829;-70
2022/07/27 11:37:12;;;;;;;;;;;;;;;;;;5112803;28;828;-71
2022/07/27 11:39:37;;;;;;;;;;;;;;;;;;5112646;28;797;-71
2022/07/27 11:42:04;;;;;;;;;;;;;;;;;;5112667;28;967;-71
2022/07/27 11:44:29;;;;;;;;;;;;;;;;;;5111124;28;1283;-71
2022/07/27 11:46:55;;;;;;;;;;;;;;;;;;5111955;28;876;-70
2022/07/27 11:49:27;;;;;;;;;;;;;;;;;;5111094;28;1914;-71
2022/07/27 11:51:54;;;;;;;;;;;;;;;;;;5112491;28;915;-70
2022/07/27 11:54:26;;;;;;;;;;;;;;;;;;5111784;28;1311;-71
2022/07/27 11:56:56;;;;;;;;;;;;;;;;;;5112341;28;901;-71
2022/07/27 11:59:23;;;;;;;;;;;;;;;;;;5111476;28;1193;-70
2022/07/27 12:01:53;;;;;;;;;;;;;;;;;;5111476;28;1261;-71
2022/07/27 12:04:21;;;;;;;;;;;;;;;;;;5113047;28;1566;-71
2022/07/27 12:06:59;;;;;;;;;;;;;;;;;;5112668;28;840;-71
2022/07/27 12:09:25;;;;;;;;;;;;;;;;;;5112928;28;1913;-71
2022/07/27 12:11:53;;;;;;;;;;;;;;;;;;5112624;28;899;-72
2022/07/27 12:14:32;;;;;;;;;;;;;;;;;;5112302;28;852;-72
2022/07/27 12:17:17;;;;;;;;;;;;;;;;;;5111870;28;883;-70
2022/07/27 12:19:48;;;;;;;;;;;;;;;;;;5110962;28;1356;-72
2022/07/27 12:22:21;;;;;;;;;;;;;;;;;;5110802;28;1202;-71
2022/07/27 12:24:46;;;;;;;;;;;;;;;;;;5112209;28;1006;-71
2022/07/27 12:27:12;;;;;;;;;;;;;;;;;;5110888;28;966;-70
2022/07/27 12:29:54;;;;;;;;;;;;;;;;;;5111942;28;1910;-70
2022/07/27 12:32:19;;;;;;;;;;;;;;;;;;5111278;28;1311;-71
2022/07/27 12:34:45;;;;;;;;;;;;;;;;;;5114502;28;1139;-71
2022/07/27 12:37:11;;;;;;;;;;;;;;;;;;5114548;28;1125;-70
2022/07/27 12:39:36;;;;;;;;;;;;;;;;;;5097470;28;1310;-71
2022/07/27 12:42:02;;;;;;;;;;;;;;;;;;5116039;28;919;-71
2022/07/27 12:44:32;;;;;;;;;;;;;;;;;;5114799;28;820;-71
2022/07/27 12:47:39;;;;;;;;;;;;;;;;;;5115958;28;1108;-71
2022/07/27 12:50:07;;;;;;;;;;;;;;;;;;5115373;28;1969;-71
2022/07/27 12:52:34;;;;;;;;;;;;;;;;;;5104630;28;1334;-72
2022/07/27 12:54:59;;;;;;;;;;;;;;;;;;5117046;27;931;-72
2022/07/27 12:57:24;;;;;;;;;;;;;;;;;;5117513;27;1050;-71
2022/07/27 12:59:50;;;;;;;;;;;;;;;;;;5117264;28;1228;-71
2022/07/27 13:02:15;;;;;;;;;;;;;;;;;;5116994;28;820;-71
2022/07/27 13:04:40;;;;;;;;;;;;;;;;;;5117496;28;883;-71
2022/07/27 13:07:06;;;;;;;;;;;;;;;;;;5122043;28;867;-71
2022/07/27 13:09:31;;;;;;;;;;;;;;;;;;5119135;28;1951;-72
2022/07/27 13:11:56;;;;;;;;;;;;;;;;;;5118532;28;907;-71
2022/07/27 13:14:21;;;;;;;;;;;;;;;;;;5118855;28;935;-72
2022/07/27 13:16:47;;;;;;;;;;;;;;;;;;5120902;28;1108;-72
2022/07/27 13:19:13;;;;;;;;;;;;;;;;;;5117194;28;1042;-71
2022/07/27 13:21:39;;;;;;;;;;;;;;;;;;5115569;28;1366;-71
2022/07/27 13:24:07;;;;;;;;;;;;;;;;;;5114971;28;1250;-71
2022/07/27 13:26:33;;;;;;;;;;;;;;;;;;5098614;28;1167;-71
2022/07/27 13:28:58;;;;;;;;;;;;;;;;;;5114493;28;1911;-71
2022/07/27 13:31:24;;;;;;;;;;;;;;;;;;5099015;28;1340;-71
2022/07/27 13:33:49;;;;;;;;;;;;;;;;;;5116326;28;824;-72
2022/07/27 13:36:15;;;;;;;;;;;;;;;;;;5115600;28;836;-71
2022/07/27 13:38:41;;;;;;;;;;;;;;;;;;5115080;28;935;-72
2022/07/27 13:41:07;;;;;;;;;;;;;;;;;;5114210;28;1443;-71
2022/07/27 13:43:32;;;;;;;;;;;;;;;;;;5113933;28;896;-72
2022/07/27 13:45:57;;;;;;;;;;;;;;;;;;5114461;28;938;-71
2022/07/27 13:48:23;;;;;;;;;;;;;;;;;;5097225;28;1922;-72
2022/07/27 13:50:48;;;;;;;;;;;;;;;;;;5113898;28;836;-72
2022/07/27 13:53:15;;;;;;;;;;;;;;;;;;5113453;28;1295;-71
2022/07/27 13:55:41;;;;;;;;;;;;;;;;;;5113138;28;1189;-70
2022/07/27 13:58:12;;;;;;;;;;;;;;;;;;5113616;28;820;-71
2022/07/27 14:00:38;;;;;;;;;;;;;;;;;;5113232;28;864;-71
2022/07/27 14:03:03;;;;;;;;;;;;;;;;;;5114379;28;860;-71
2022/07/27 14:05:29;;;;;;;;;;;;;;;;;;5114294;28;889;-71
2022/07/27 14:07:54;;;;;;;;;;;;;;;;;;5113995;28;1971;-71
2022/07/27 14:10:38;;;;;;;;;;;;;;;;;;5112616;28;864;-70
2022/07/27 14:13:04;;;;;;;;;;;;;;;;;;5113102;28;888;-70
2022/07/27 14:15:30;;;;;;;;;;;;;;;;;;5113831;28;825;-70
2022/07/27 14:17:55;;;;;;;;;;;;;;;;;;5113699;28;828;-71
2022/07/27 14:20:20;;;;;;;;;;;;;;;;;;5095984;28;1272;-71
2022/07/27 14:22:46;;;;;;;;;;;;;;;;;;5112460;28;1069;-71
2022/07/27 14:25:11;;;;;;;;;;;;;;;;;;5112867;28;995;-71
2022/07/27 14:27:37;;;;;;;;;;;;;;;;;;5113555;28;880;-70
2022/07/27 14:30:03;;;;;;;;;;;;;;;;;;5113966;28;1901;-70
2022/07/27 14:32:28;;;;;;;;;;;;;;;;;;5113426;28;951;-70
2022/07/27 14:34:53;;;;;;;;;;;;;;;;;;5112118;28;849;-71
2022/07/27 14:37:18;;;;;;;;;;;;;;;;;;5112342;28;940;-71
2022/07/27 14:39:44;;;;;;;;;;;;;;;;;;5112284;28;967;-71
2022/07/27 14:42:09;;;;;;;;;;;;;;;;;;5095456;28;1249;-71
2022/07/27 14:44:35;;;;;;;;;;;;;;;;;;5112349;28;1278;-71
2022/07/27 14:47:00;;;;;;;;;;;;;;;;;;5112264;28;1372;-72
2022/07/27 14:49:26;;;;;;;;;;;;;;;;;;5112057;28;1959;-71
2022/07/27 14:51:51;;;;;;;;;;;;;;;;;;5112665;28;837;-71
2022/07/27 14:54:16;;;;;;;;;;;;;;;;;;5113345;28;950;-71
2022/07/27 14:56:42;;;;;;;;;;;;;;;;;;5113748;28;760;-71
2022/07/27 14:59:07;;;;;;;;;;;;;;;;;;5096084;28;1263;-70
2022/07/27 15:01:32;;;;;;;;;;;;;;;;;;5112417;28;830;-71
2022/07/27 15:03:58;;;;;;;;;;;;;;;;;;5111894;28;880;-71
2022/07/27 15:06:23;;;;;;;;;;;;;;;;;;5112214;28;1277;-70
2022/07/27 15:08:48;;;;;;;;;;;;;;;;;;5112451;28;1898;-71
2022/07/27 15:11:14;;;;;;;;;;;;;;;;;;5094533;28;1187;-71
2022/07/27 15:13:39;;;;;;;;;;;;;;;;;;5111564;28;849;-70
2022/07/27 15:16:06;;;;;;;;;;;;;;;;;;5113346;28;990;-71
2022/07/27 15:18:32;;;;;;;;;;;;;;;;;;5111493;28;1250;-70
2022/07/27 15:20:58;;;;;;;;;;;;;;;;;;5111447;28;1295;-71
2022/07/27 15:23:25;;;;;;;;;;;;;;;;;;5104079;28;1055;-71
2022/07/27 15:25:50;;;;;;;;;;;;;;;;;;5111628;28;1202;-70
2022/07/27 15:28:16;;;;;;;;;;;;;;;;;;5111856;28;1937;-70
2022/07/27 15:30:41;;;;;;;;;;;;;;;;;;5111804;28;1166;-71
2022/07/27 15:33:07;;;;;;;;;;;;;;;;;;5081397;28;1267;-71
2022/07/27 15:35:32;;;;;;;;;;;;;;;;;;5092682;28;1282;-71
2022/07/27 15:37:57;;;;;;;;;;;;;;;;;;5075359;28;1487;-71
2022/07/27 15:40:40;;;;;;;;;;;;;;;;;;5091733;28;888;-71
2022/07/27 15:43:07;;;;;;;;;;;;;;;;;;5091758;28;1142;-71
2022/07/27 15:45:37;;;;;;;;;;;;;;;;;;5092466;28;907;-72
2022/07/27 15:48:02;;;;;;;;;;;;;;;;;;5074502;28;1910;-71
2022/07/27 15:50:28;;;;;;;;;;;;;;;;;;5092038;28;852;-71
2022/07/27 15:52:53;;;;;;;;;;;;;;;;;;5090989;28;848;-71
2022/07/27 15:55:19;;;;;;;;;;;;;;;;;;5092530;28;883;-72
2022/07/27 15:57:44;;;;;;;;;;;;;;;;;;5097055;28;1479;-71
2022/07/27 16:00:10;;;;;;;;;;;;;;;;;;5109975;28;1221;-71
2022/07/27 16:02:35;;;;;;;;;;;;;;;;;;5113136;28;891;-71
2022/07/27 16:05:00;;;;;;;;;;;;;;;;;;5112396;28;963;-71
2022/07/27 16:07:26;;;;;;;;;;;;;;;;;;5112789;28;970;-71
2022/07/27 16:09:51;;;;;;;;;;;;;;;;;;5113857;28;1913;-71
2022/07/27 16:12:18;;;;;;;;;;;;;;;;;;5115598;28;860;-71
2022/07/27 16:14:44;;;;;;;;;;;;;;;;;;5116185;28;817;-71
2022/07/27 16:17:09;;;;;;;;;;;;;;;;;;5117184;28;852;-72
2022/07/27 16:19:34;;;;;;;;;;;;;;;;;;5117253;28;892;-71
2022/07/27 16:22:02;;;;;;;;;;;;;;;;;;5098481;28;1305;-71
2022/07/27 16:24:27;;;;;;;;;;;;;;;;;;5117302;28;864;-71
2022/07/27 16:26:53;;;;;;;;;;;;;;;;;;5115410;28;892;-71
2022/07/27 16:29:18;;;;;;;;;;;;;;;;;;5117196;28;1975;-71
2022/07/27 16:31:44;;;;;;;;;;;;;;;;;;5115864;28;1658;-71
2022/07/27 16:34:09;;;;;;;;;;;;;;;;;;5116943;28;905;-71
2022/07/27 16:36:34;;;;;;;;;;;;;;;;;;5115486;28;860;-71
2022/07/27 16:38:59;;;;;;;;;;;;;;;;;;5114981;28;1112;-72
2022/07/27 16:41:24;;;;;;;;;;;;;;;;;;5116197;28;1169;-71
2022/07/27 16:43:50;;;;;;;;;;;;;;;;;;5115839;28;828;-71
2022/07/27 16:46:15;;;;;;;;;;;;;;;;;;5114936;28;1657;-72
2022/07/27 16:48:41;;;;;;;;;;;;;;;;;;5114721;28;1914;-71
2022/07/27 16:51:09;;;;;;;;;;;;;;;;;;5115404;28;1320;-72
2022/07/27 16:53:35;;;;;;;;;;;;;;;;;;5114752;28;940;-71
2022/07/27 16:56:00;;;;;;;;;;;;;;;;;;5116101;28;813;-72
2022/07/27 16:58:26;;;;;;;;;;;;;;;;;;5115686;28;991;-72
2022/07/27 17:00:52;;;;;;;;;;;;;;;;;;5114927;28;887;-72
2022/07/27 17:03:17;;;;;;;;;;;;;;;;;;5115876;28;935;-71
2022/07/27 17:05:42;;;;;;;;;;;;;;;;;;5115401;28;951;-71
2022/07/27 17:08:09;;;;;;;;;;;;;;;;;;5097655;28;1914;-71